sensor_id;sensor_type;location;lat;lon;timestamp;temperature;humidity
51996;DHT22;38010;53.264;6.592;2023-03-20T00:01:12;15.60;99.90
51996;DHT22;38010;53.264;6.592;2023-03-20T00:03:38;15.50;99.90
51996;DHT22;38010;53.264;6.592;2023-03-20T00:06:04;15.60;99.90
51996;DHT22;38010;53.264;6.592;2023-03-20T00:08:30;15.60;99.90
51996;DHT22;38010;53.264;6.592;2023-03-20T00:10:57;15.50;99.90
51996;DHT22;38010;53.264;6.592;2023-03-20T00:13:24;15.50;99.90
51996;DHT22;38010;53.264;6.592;2023-03-20T00:15:52;15.50;99.90
51996;DHT22;38010;53.264;6.592;2023-03-20T00:18:21;15.50;99.90
51996;DHT22;38010;53.264;6.592;2023-03-20T00:20:50;15.50;99.90
51996;DHT22;38010;53.264;6.592;2023-03-20T00:23:18;15.50;99.90
51996;DHT22;38010;53.264;6.592;2023-03-20T00:25:44;15.50;99.90
51996;DHT22;38010;53.264;6.592;2023-03-20T00:30:55;15.40;99.90
51996;DHT22;38010;53.264;6.592;2023-03-20T00:33:21;15.50;99.90
51996;DHT22;38010;53.264;6.592;2023-03-20T00:35:47;15.40;99.90
51996;DHT22;38010;53.264;6.592;2023-03-20T00:38:13;15.40;99.90
51996;DHT22;38010;53.264;6.592;2023-03-20T00:40:38;15.40;99.90
51996;DHT22;38010;53.264;6.592;2023-03-20T00:43:04;15.40;99.90
51996;DHT22;38010;53.264;6.592;2023-03-20T00:45:31;15.40;99.90
51996;DHT22;38010;53.264;6.592;2023-03-20T00:47:58;15.40;99.90
51996;DHT22;38010;53.264;6.592;2023-03-20T00:50:29;15.40;99.90
51996;DHT22;38010;53.264;6.592;2023-03-20T00:52:56;15.40;99.90
51996;DHT22;38010;53.264;6.592;2023-03-20T00:55:27;15.30;99.90
51996;DHT22;38010;53.264;6.592;2023-03-20T00:57:56;15.40;99.90
51996;DHT22;38010;53.264;6.592;2023-03-20T01:00:43;15.30;99.90
51996;DHT22;38010;53.264;6.592;2023-03-20T01:03:18;15.30;99.90
51996;DHT22;38010;53.264;6.592;2023-03-20T01:05:45;15.30;99.90
51996;DHT22;38010;53.264;6.592;2023-03-20T01:08:17;15.30;99.90
51996;DHT22;38010;53.264;6.592;2023-03-20T01:10:45;15.30;99.90
51996;DHT22;38010;53.264;6.592;2023-03-20T01:13:23;15.30;99.90
51996;DHT22;38010;53.264;6.592;2023-03-20T01:15:50;15.30;99.90
51996;DHT22;38010;53.264;6.592;2023-03-20T01:18:18;15.30;99.90
51996;DHT22;38010;53.264;6.592;2023-03-20T01:20:45;15.30;99.90
51996;DHT22;38010;53.264;6.592;2023-03-20T01:23:11;15.30;99.90
51996;DHT22;38010;53.264;6.592;2023-03-20T01:25:37;15.30;99.90
51996;DHT22;38010;53.264;6.592;2023-03-20T01:28:12;15.20;99.90
51996;DHT22;38010;53.264;6.592;2023-03-20T01:30:38;15.30;99.90
51996;DHT22;38010;53.264;6.592;2023-03-20T01:33:21;15.30;99.90
51996;DHT22;38010;53.264;6.592;2023-03-20T01:35:49;15.20;99.90
51996;DHT22;38010;53.264;6.592;2023-03-20T01:38:19;15.20;99.90
51996;DHT22;38010;53.264;6.592;2023-03-20T01:41:02;15.20;99.90
51996;DHT22;38010;53.264;6.592;2023-03-20T01:43:29;15.20;99.90
51996;DHT22;38010;53.264;6.592;2023-03-20T01:46:15;15.20;99.90
51996;DHT22;38010;53.264;6.592;2023-03-20T01:51:17;15.20;99.90
51996;DHT22;38010;53.264;6.592;2023-03-20T01:53:44;15.20;99.90
51996;DHT22;38010;53.264;6.592;2023-03-20T01:56:13;15.20;99.90
51996;DHT22;38010;53.264;6.592;2023-03-20T01:58:43;15.20;99.90
51996;DHT22;38010;53.264;6.592;2023-03-20T02:01:11;15.20;99.90
51996;DHT22;38010;53.264;6.592;2023-03-20T02:03:39;15.10;99.90
51996;DHT22;38010;53.264;6.592;2023-03-20T02:06:07;15.20;99.90
51996;DHT22;38010;53.264;6.592;2023-03-20T02:08:39;15.10;99.90
51996;DHT22;38010;53.264;6.592;2023-03-20T02:11:06;15.10;99.90
51996;DHT22;38010;53.264;6.592;2023-03-20T02:13:33;15.20;99.90
51996;DHT22;38010;53.264;6.592;2023-03-20T02:16:05;15.10;99.90
51996;DHT22;38010;53.264;6.592;2023-03-20T02:18:33;15.10;99.90
51996;DHT22;38010;53.264;6.592;2023-03-20T02:27:17;15.10;99.90
51996;DHT22;38010;53.264;6.592;2023-03-20T02:30:22;15.10;99.90
51996;DHT22;38010;53.264;6.592;2023-03-20T02:38:44;15.10;99.90
51996;DHT22;38010;53.264;6.592;2023-03-20T02:41:27;15.10;99.90
51996;DHT22;38010;53.264;6.592;2023-03-20T02:44:35;15.10;99.90
51996;DHT22;38010;53.264;6.592;2023-03-20T02:47:14;15.00;99.90
51996;DHT22;38010;53.264;6.592;2023-03-20T02:49:57;15.10;99.90
51996;DHT22;38010;53.264;6.592;2023-03-20T02:55:25;15.00;99.90
51996;DHT22;38010;53.264;6.592;2023-03-20T02:58:12;15.10;99.90
51996;DHT22;38010;53.264;6.592;2023-03-20T03:00:46;15.00;99.90
51996;DHT22;38010;53.264;6.592;2023-03-20T03:03:17;15.10;99.90
51996;DHT22;38010;53.264;6.592;2023-03-20T03:06:16;15.00;99.90
51996;DHT22;38010;53.264;6.592;2023-03-20T03:08:41;15.00;99.90
51996;DHT22;38010;53.264;6.592;2023-03-20T03:11:08;15.00;99.90
51996;DHT22;38010;53.264;6.592;2023-03-20T03:13:55;15.00;99.90
51996;DHT22;38010;53.264;6.592;2023-03-20T03:16:31;15.00;99.90
51996;DHT22;38010;53.264;6.592;2023-03-20T03:19:11;15.00;99.90
51996;DHT22;38010;53.264;6.592;2023-03-20T03:21:39;15.00;99.90
51996;DHT22;38010;53.264;6.592;2023-03-20T03:24:14;15.00;99.90
51996;DHT22;38010;53.264;6.592;2023-03-20T03:26:44;15.00;99.90
51996;DHT22;38010;53.264;6.592;2023-03-20T03:29:15;15.00;99.90
51996;DHT22;38010;53.264;6.592;2023-03-20T03:31:43;15.00;99.90
51996;DHT22;38010;53.264;6.592;2023-03-20T03:34:15;15.00;99.90
51996;DHT22;38010;53.264;6.592;2023-03-20T03:40:04;14.90;99.90
51996;DHT22;38010;53.264;6.592;2023-03-20T03:42:38;15.00;99.90
51996;DHT22;38010;53.264;6.592;2023-03-20T03:45:11;14.90;99.90
51996;DHT22;38010;53.264;6.592;2023-03-20T03:48:02;14.90;99.90
51996;DHT22;38010;53.264;6.592;2023-03-20T03:50:49;14.90;99.90
51996;DHT22;38010;53.264;6.592;2023-03-20T03:53:23;14.90;99.90
51996;DHT22;38010;53.264;6.592;2023-03-20T03:55:53;14.90;99.90
51996;DHT22;38010;53.264;6.592;2023-03-20T03:58:28;14.90;99.90
51996;DHT22;38010;53.264;6.592;2023-03-20T04:00:57;14.90;99.90
51996;DHT22;38010;53.264;6.592;2023-03-20T04:03:28;14.90;99.90
51996;DHT22;38010;53.264;6.592;2023-03-20T04:05:55;14.90;99.90
51996;DHT22;38010;53.264;6.592;2023-03-20T04:08:22;14.90;99.90
51996;DHT22;38010;53.264;6.592;2023-03-20T04:10:48;14.90;99.90
51996;DHT22;38010;53.264;6.592;2023-03-20T04:13:14;14.90;99.90
51996;DHT22;38010;53.264;6.592;2023-03-20T04:15:41;14.90;99.90
51996;DHT22;38010;53.264;6.592;2023-03-20T04:18:12;14.90;99.90
51996;DHT22;38010;53.264;6.592;2023-03-20T04:20:39;14.90;99.90
51996;DHT22;38010;53.264;6.592;2023-03-20T04:23:04;14.90;99.90
51996;DHT22;38010;53.264;6.592;2023-03-20T04:25:30;14.90;99.90
51996;DHT22;38010;53.264;6.592;2023-03-20T04:27:56;14.80;99.90
51996;DHT22;38010;53.264;6.592;2023-03-20T04:30:22;14.80;99.90
51996;DHT22;38010;53.264;6.592;2023-03-20T04:32:47;14.90;99.90
51996;DHT22;38010;53.264;6.592;2023-03-20T04:35:13;14.80;99.90
51996;DHT22;38010;53.264;6.592;2023-03-20T04:37:39;14.90;99.90
51996;DHT22;38010;53.264;6.592;2023-03-20T04:40:05;14.80;99.90
51996;DHT22;38010;53.264;6.592;2023-03-20T04:42:31;14.90;99.90
51996;DHT22;38010;53.264;6.592;2023-03-20T04:44:56;14.80;99.90
51996;DHT22;38010;53.264;6.592;2023-03-20T04:47:22;14.80;99.90
51996;DHT22;38010;53.264;6.592;2023-03-20T04:49:48;14.80;99.90
51996;DHT22;38010;53.264;6.592;2023-03-20T04:52:13;14.80;99.90
51996;DHT22;38010;53.264;6.592;2023-03-20T04:54:39;14.80;99.90
51996;DHT22;38010;53.264;6.592;2023-03-20T04:57:05;14.80;99.90
51996;DHT22;38010;53.264;6.592;2023-03-20T04:59:31;14.80;99.90
51996;DHT22;38010;53.264;6.592;2023-03-20T05:01:56;14.80;99.90
51996;DHT22;38010;53.264;6.592;2023-03-20T05:04:22;14.80;99.90
51996;DHT22;38010;53.264;6.592;2023-03-20T05:06:48;14.80;99.90
51996;DHT22;38010;53.264;6.592;2023-03-20T05:09:15;14.80;99.90
51996;DHT22;38010;53.264;6.592;2023-03-20T05:11:42;14.80;99.90
51996;DHT22;38010;53.264;6.592;2023-03-20T05:14:07;14.80;99.90
51996;DHT22;38010;53.264;6.592;2023-03-20T05:16:33;14.70;99.90
51996;DHT22;38010;53.264;6.592;2023-03-20T05:18:59;14.70;99.90
51996;DHT22;38010;53.264;6.592;2023-03-20T05:21:25;14.70;99.90
51996;DHT22;38010;53.264;6.592;2023-03-20T05:23:51;14.80;99.90
51996;DHT22;38010;53.264;6.592;2023-03-20T05:26:16;14.80;99.90
51996;DHT22;38010;53.264;6.592;2023-03-20T05:28:42;14.80;99.90
51996;DHT22;38010;53.264;6.592;2023-03-20T05:31:08;14.70;99.90
51996;DHT22;38010;53.264;6.592;2023-03-20T05:33:33;14.70;99.90
51996;DHT22;38010;53.264;6.592;2023-03-20T05:35:59;14.70;99.90
51996;DHT22;38010;53.264;6.592;2023-03-20T05:38:25;14.70;99.90
51996;DHT22;38010;53.264;6.592;2023-03-20T05:40:59;14.70;99.90
51996;DHT22;38010;53.264;6.592;2023-03-20T05:43:25;14.70;99.90
51996;DHT22;38010;53.264;6.592;2023-03-20T05:45:55;14.70;99.90
51996;DHT22;38010;53.264;6.592;2023-03-20T05:48:21;14.70;99.90
51996;DHT22;38010;53.264;6.592;2023-03-20T05:50:47;14.70;99.90
51996;DHT22;38010;53.264;6.592;2023-03-20T05:53:13;14.70;99.90
51996;DHT22;38010;53.264;6.592;2023-03-20T05:55:39;14.70;99.90
51996;DHT22;38010;53.264;6.592;2023-03-20T05:58:06;14.70;99.90
51996;DHT22;38010;53.264;6.592;2023-03-20T06:00:32;14.70;99.90
51996;DHT22;38010;53.264;6.592;2023-03-20T06:02:58;14.70;99.90
51996;DHT22;38010;53.264;6.592;2023-03-20T06:05:23;14.60;99.90
51996;DHT22;38010;53.264;6.592;2023-03-20T06:07:49;14.70;99.90
51996;DHT22;38010;53.264;6.592;2023-03-20T06:10:15;14.70;99.90
51996;DHT22;38010;53.264;6.592;2023-03-20T06:12:42;14.60;99.90
51996;DHT22;38010;53.264;6.592;2023-03-20T06:15:08;14.70;99.90
51996;DHT22;38010;53.264;6.592;2023-03-20T06:17:34;14.70;99.90
51996;DHT22;38010;53.264;6.592;2023-03-20T06:20:00;14.70;99.90
51996;DHT22;38010;53.264;6.592;2023-03-20T06:22:26;14.70;99.90
51996;DHT22;38010;53.264;6.592;2023-03-20T06:24:52;14.70;99.90
51996;DHT22;38010;53.264;6.592;2023-03-20T06:27:17;14.70;99.90
51996;DHT22;38010;53.264;6.592;2023-03-20T06:29:43;14.70;99.90
51996;DHT22;38010;53.264;6.592;2023-03-20T06:32:09;14.70;99.90
51996;DHT22;38010;53.264;6.592;2023-03-20T06:34:37;14.70;99.90
51996;DHT22;38010;53.264;6.592;2023-03-20T06:37:02;14.70;99.90
51996;DHT22;38010;53.264;6.592;2023-03-20T06:39:28;14.70;99.90
51996;DHT22;38010;53.264;6.592;2023-03-20T06:41:54;14.70;99.90
51996;DHT22;38010;53.264;6.592;2023-03-20T06:44:20;14.70;99.90
51996;DHT22;38010;53.264;6.592;2023-03-20T06:46:46;14.60;99.90
51996;DHT22;38010;53.264;6.592;2023-03-20T06:49:11;14.70;99.90
51996;DHT22;38010;53.264;6.592;2023-03-20T06:51:37;14.60;99.90
51996;DHT22;38010;53.264;6.592;2023-03-20T06:54:03;14.80;99.90
51996;DHT22;38010;53.264;6.592;2023-03-20T06:56:29;14.80;99.90
51996;DHT22;38010;53.264;6.592;2023-03-20T06:58:56;14.70;99.90
51996;DHT22;38010;53.264;6.592;2023-03-20T07:01:22;14.70;99.90
51996;DHT22;38010;53.264;6.592;2023-03-20T07:03:49;14.70;99.90
51996;DHT22;38010;53.264;6.592;2023-03-20T07:06:15;14.70;99.90
51996;DHT22;38010;53.264;6.592;2023-03-20T07:08:43;14.70;99.90
51996;DHT22;38010;53.264;6.592;2023-03-20T07:11:09;14.70;99.90
51996;DHT22;38010;53.264;6.592;2023-03-20T07:13:35;14.70;99.90
51996;DHT22;38010;53.264;6.592;2023-03-20T07:16:01;14.70;99.90
51996;DHT22;38010;53.264;6.592;2023-03-20T07:18:27;14.70;99.90
51996;DHT22;38010;53.264;6.592;2023-03-20T07:20:58;14.70;99.90
51996;DHT22;38010;53.264;6.592;2023-03-20T07:23:24;14.70;99.90
51996;DHT22;38010;53.264;6.592;2023-03-20T07:25:50;14.70;99.90
51996;DHT22;38010;53.264;6.592;2023-03-20T07:28:16;14.70;99.90
51996;DHT22;38010;53.264;6.592;2023-03-20T07:30:42;14.70;99.90
51996;DHT22;38010;53.264;6.592;2023-03-20T07:33:08;14.70;99.90
51996;DHT22;38010;53.264;6.592;2023-03-20T07:35:34;14.70;99.90
51996;DHT22;38010;53.264;6.592;2023-03-20T07:37:59;14.70;99.90
51996;DHT22;38010;53.264;6.592;2023-03-20T07:40:25;14.70;99.90
51996;DHT22;38010;53.264;6.592;2023-03-20T07:42:51;14.70;99.90
51996;DHT22;38010;53.264;6.592;2023-03-20T07:45:17;14.70;99.90
51996;DHT22;38010;53.264;6.592;2023-03-20T07:47:44;14.70;99.90
51996;DHT22;38010;53.264;6.592;2023-03-20T07:50:10;14.60;99.90
51996;DHT22;38010;53.264;6.592;2023-03-20T07:52:36;14.70;99.90
51996;DHT22;38010;53.264;6.592;2023-03-20T07:55:02;14.70;99.90
51996;DHT22;38010;53.264;6.592;2023-03-20T07:57:28;14.70;99.90
51996;DHT22;38010;53.264;6.592;2023-03-20T07:59:53;14.70;99.90
51996;DHT22;38010;53.264;6.592;2023-03-20T08:02:19;14.70;99.90
51996;DHT22;38010;53.264;6.592;2023-03-20T08:04:45;14.70;99.90
51996;DHT22;38010;53.264;6.592;2023-03-20T08:07:11;14.70;99.90
51996;DHT22;38010;53.264;6.592;2023-03-20T08:09:37;14.70;99.90
51996;DHT22;38010;53.264;6.592;2023-03-20T08:12:04;14.70;99.90
51996;DHT22;38010;53.264;6.592;2023-03-20T08:14:30;14.70;99.90
51996;DHT22;38010;53.264;6.592;2023-03-20T08:16:56;14.70;99.90
51996;DHT22;38010;53.264;6.592;2023-03-20T08:19:22;14.70;99.90
51996;DHT22;38010;53.264;6.592;2023-03-20T08:21:48;14.70;99.90
51996;DHT22;38010;53.264;6.592;2023-03-20T08:24:14;14.70;99.90
51996;DHT22;38010;53.264;6.592;2023-03-20T08:26:41;14.70;99.90
51996;DHT22;38010;53.264;6.592;2023-03-20T08:29:06;14.60;99.90
51996;DHT22;38010;53.264;6.592;2023-03-20T08:31:32;14.70;99.90
51996;DHT22;38010;53.264;6.592;2023-03-20T08:33:58;14.70;99.90
51996;DHT22;38010;53.264;6.592;2023-03-20T08:36:23;14.70;99.90
51996;DHT22;38010;53.264;6.592;2023-03-20T08:38:49;14.60;99.90
51996;DHT22;38010;53.264;6.592;2023-03-20T08:41:16;14.60;99.90
51996;DHT22;38010;53.264;6.592;2023-03-20T08:43:42;14.70;99.90
51996;DHT22;38010;53.264;6.592;2023-03-20T08:46:08;14.70;99.90
51996;DHT22;38010;53.264;6.592;2023-03-20T08:48:34;14.60;99.90
51996;DHT22;38010;53.264;6.592;2023-03-20T08:51:00;14.70;99.90
51996;DHT22;38010;53.264;6.592;2023-03-20T08:53:26;14.60;99.90
51996;DHT22;38010;53.264;6.592;2023-03-20T08:55:53;14.70;99.90
51996;DHT22;38010;53.264;6.592;2023-03-20T08:58:19;14.70;99.90
51996;DHT22;38010;53.264;6.592;2023-03-20T09:00:46;14.70;99.90
51996;DHT22;38010;53.264;6.592;2023-03-20T09:03:17;14.70;99.90
51996;DHT22;38010;53.264;6.592;2023-03-20T09:05:44;14.70;99.90
51996;DHT22;38010;53.264;6.592;2023-03-20T09:08:11;14.70;99.90
51996;DHT22;38010;53.264;6.592;2023-03-20T09:10:37;14.70;99.90
51996;DHT22;38010;53.264;6.592;2023-03-20T09:13:03;14.70;99.90
51996;DHT22;38010;53.264;6.592;2023-03-20T09:15:29;14.70;99.90
51996;DHT22;38010;53.264;6.592;2023-03-20T09:17:55;14.70;99.90
51996;DHT22;38010;53.264;6.592;2023-03-20T09:20:21;14.70;99.90
51996;DHT22;38010;53.264;6.592;2023-03-20T09:22:46;14.70;99.90
51996;DHT22;38010;53.264;6.592;2023-03-20T09:25:12;14.70;99.90
51996;DHT22;38010;53.264;6.592;2023-03-20T09:27:38;14.70;99.90
51996;DHT22;38010;53.264;6.592;2023-03-20T09:30:08;14.70;99.90
51996;DHT22;38010;53.264;6.592;2023-03-20T09:32:35;14.70;99.90
51996;DHT22;38010;53.264;6.592;2023-03-20T09:35:02;14.70;99.90
51996;DHT22;38010;53.264;6.592;2023-03-20T09:37:28;14.70;99.90
51996;DHT22;38010;53.264;6.592;2023-03-20T09:39:54;14.70;99.90
51996;DHT22;38010;53.264;6.592;2023-03-20T09:48:53;14.80;99.90
51996;DHT22;38010;53.264;6.592;2023-03-20T09:51:24;14.70;99.90
51996;DHT22;38010;53.264;6.592;2023-03-20T09:53:55;14.80;99.90
51996;DHT22;38010;53.264;6.592;2023-03-20T09:56:27;14.80;99.90
51996;DHT22;38010;53.264;6.592;2023-03-20T09:58:55;14.80;99.90
51996;DHT22;38010;53.264;6.592;2023-03-20T10:01:25;14.70;99.90
51996;DHT22;38010;53.264;6.592;2023-03-20T10:04:00;14.80;99.90
51996;DHT22;38010;53.264;6.592;2023-03-20T10:06:29;14.80;99.90
51996;DHT22;38010;53.264;6.592;2023-03-20T10:08:54;14.80;99.90
51996;DHT22;38010;53.264;6.592;2023-03-20T10:11:45;14.80;99.90
51996;DHT22;38010;53.264;6.592;2023-03-20T10:17:43;14.80;99.90
51996;DHT22;38010;53.264;6.592;2023-03-20T10:20:34;14.90;99.90
51996;DHT22;38010;53.264;6.592;2023-03-20T10:23:15;14.80;99.90
51996;DHT22;38010;53.264;6.592;2023-03-20T10:25:55;14.90;99.90
51996;DHT22;38010;53.264;6.592;2023-03-20T10:28:46;14.80;99.90
51996;DHT22;38010;53.264;6.592;2023-03-20T10:41:54;14.80;99.90
51996;DHT22;38010;53.264;6.592;2023-03-20T10:44:36;14.80;99.90
51996;DHT22;38010;53.264;6.592;2023-03-20T10:47:06;14.80;99.90
51996;DHT22;38010;53.264;6.592;2023-03-20T10:49:51;14.80;99.90
51996;DHT22;38010;53.264;6.592;2023-03-20T10:52:23;14.80;99.90
51996;DHT22;38010;53.264;6.592;2023-03-20T10:55:03;14.90;99.90
51996;DHT22;38010;53.264;6.592;2023-03-20T10:57:34;14.80;99.90
51996;DHT22;38010;53.264;6.592;2023-03-20T11:00:04;14.90;99.90
51996;DHT22;38010;53.264;6.592;2023-03-20T11:02:35;14.90;99.90
51996;DHT22;38010;53.264;6.592;2023-03-20T11:05:29;14.80;99.90
51996;DHT22;38010;53.264;6.592;2023-03-20T11:08:23;14.80;99.90
51996;DHT22;38010;53.264;6.592;2023-03-20T11:10:58;14.90;99.90
51996;DHT22;38010;53.264;6.592;2023-03-20T11:13:26;14.80;99.90
51996;DHT22;38010;53.264;6.592;2023-03-20T11:15:55;14.80;99.90
51996;DHT22;38010;53.264;6.592;2023-03-20T11:18:24;14.80;99.90
51996;DHT22;38010;53.264;6.592;2023-03-20T11:20:51;14.80;99.90
51996;DHT22;38010;53.264;6.592;2023-03-20T11:23:27;14.80;99.90
51996;DHT22;38010;53.264;6.592;2023-03-20T11:26:02;14.80;99.90
51996;DHT22;38010;53.264;6.592;2023-03-20T11:28:35;14.70;99.90
51996;DHT22;38010;53.264;6.592;2023-03-20T11:33:43;14.80;99.90
51996;DHT22;38010;53.264;6.592;2023-03-20T11:36:18;14.80;99.90
51996;DHT22;38010;53.264;6.592;2023-03-20T11:38:45;14.70;99.90
51996;DHT22;38010;53.264;6.592;2023-03-20T11:41:24;14.80;99.90
51996;DHT22;38010;53.264;6.592;2023-03-20T11:43:50;14.70;99.90
51996;DHT22;38010;53.264;6.592;2023-03-20T11:46:18;14.70;99.90
51996;DHT22;38010;53.264;6.592;2023-03-20T11:48:46;14.80;99.90
51996;DHT22;38010;53.264;6.592;2023-03-20T11:51:19;14.70;99.90
51996;DHT22;38010;53.264;6.592;2023-03-20T11:56:24;14.80;99.90
51996;DHT22;38010;53.264;6.592;2023-03-20T11:59:00;14.80;99.90
51996;DHT22;38010;53.264;6.592;2023-03-20T12:01:36;14.70;99.90
51996;DHT22;38010;53.264;6.592;2023-03-20T12:04:08;14.70;99.90
51996;DHT22;38010;53.264;6.592;2023-03-20T12:10:02;14.70;99.90
51996;DHT22;38010;53.264;6.592;2023-03-20T12:12:36;14.70;99.90
51996;DHT22;38010;53.264;6.592;2023-03-20T12:18:03;14.70;99.90
51996;DHT22;38010;53.264;6.592;2023-03-20T12:23:29;14.60;99.90
51996;DHT22;38010;53.264;6.592;2023-03-20T12:26:11;14.70;99.90
51996;DHT22;38010;53.264;6.592;2023-03-20T12:28:51;14.60;99.90
51996;DHT22;38010;53.264;6.592;2023-03-20T12:34:04;14.60;99.90
51996;DHT22;38010;53.264;6.592;2023-03-20T12:36:37;14.70;99.90
51996;DHT22;38010;53.264;6.592;2023-03-20T12:39:13;14.70;99.90
51996;DHT22;38010;53.264;6.592;2023-03-20T12:41:48;14.70;99.90
51996;DHT22;38010;53.264;6.592;2023-03-20T12:49:59;14.70;99.90
51996;DHT22;38010;53.264;6.592;2023-03-20T12:52:37;14.70;99.90
51996;DHT22;38010;53.264;6.592;2023-03-20T13:01:13;14.80;99.90
51996;DHT22;38010;53.264;6.592;2023-03-20T13:06:42;14.80;99.90
51996;DHT22;38010;53.264;6.592;2023-03-20T13:17:28;14.80;99.90
51996;DHT22;38010;53.264;6.592;2023-03-20T13:20:11;14.80;99.90
51996;DHT22;38010;53.264;6.592;2023-03-20T13:23:03;14.90;99.90
51996;DHT22;38010;53.264;6.592;2023-03-20T13:41:48;14.80;99.90
51996;DHT22;38010;53.264;6.592;2023-03-20T13:44:17;14.90;99.90
51996;DHT22;38010;53.264;6.592;2023-03-20T13:49:19;14.90;99.90
51996;DHT22;38010;53.264;6.592;2023-03-20T13:57:09;14.90;99.90
51996;DHT22;38010;53.264;6.592;2023-03-20T14:05:38;14.90;99.90
51996;DHT22;38010;53.264;6.592;2023-03-20T14:08:22;14.90;99.90
51996;DHT22;38010;53.264;6.592;2023-03-20T14:10:54;14.90;99.90
51996;DHT22;38010;53.264;6.592;2023-03-20T14:13:20;14.90;99.90
51996;DHT22;38010;53.264;6.592;2023-03-20T14:15:56;14.90;99.90
51996;DHT22;38010;53.264;6.592;2023-03-20T14:18:25;14.90;99.90
51996;DHT22;38010;53.264;6.592;2023-03-20T14:20:57;14.90;99.90
51996;DHT22;38010;53.264;6.592;2023-03-20T14:23:39;14.90;99.90
51996;DHT22;38010;53.264;6.592;2023-03-20T14:26:09;14.90;99.90
51996;DHT22;38010;53.264;6.592;2023-03-20T14:29:00;14.80;99.90
51996;DHT22;38010;53.264;6.592;2023-03-20T14:31:31;14.80;99.90
51996;DHT22;38010;53.264;6.592;2023-03-20T14:39:47;14.80;99.90
51996;DHT22;38010;53.264;6.592;2023-03-20T14:47:51;14.80;99.90
51996;DHT22;38010;53.264;6.592;2023-03-20T14:50:25;14.80;99.90
51996;DHT22;38010;53.264;6.592;2023-03-20T15:09:26;14.90;99.90
51996;DHT22;38010;53.264;6.592;2023-03-20T15:11:54;15.00;99.90
51996;DHT22;38010;53.264;6.592;2023-03-20T15:14:33;14.90;99.90
51996;DHT22;38010;53.264;6.592;2023-03-20T15:17:02;14.90;99.90
51996;DHT22;38010;53.264;6.592;2023-03-20T15:19:29;14.90;99.90
51996;DHT22;38010;53.264;6.592;2023-03-20T15:21:55;14.90;99.90
51996;DHT22;38010;53.264;6.592;2023-03-20T15:24:26;14.90;99.90
51996;DHT22;38010;53.264;6.592;2023-03-20T15:26:58;14.90;99.90
51996;DHT22;38010;53.264;6.592;2023-03-20T15:29:26;14.90;99.90
51996;DHT22;38010;53.264;6.592;2023-03-20T15:31:57;14.90;99.90
51996;DHT22;38010;53.264;6.592;2023-03-20T15:34:30;14.90;99.90
51996;DHT22;38010;53.264;6.592;2023-03-20T15:36:59;14.90;99.90
51996;DHT22;38010;53.264;6.592;2023-03-20T15:39:28;14.90;99.90
51996;DHT22;38010;53.264;6.592;2023-03-20T15:42:19;14.90;99.90
51996;DHT22;38010;53.264;6.592;2023-03-20T15:44:47;15.00;99.90
51996;DHT22;38010;53.264;6.592;2023-03-20T15:47:18;15.00;99.90
51996;DHT22;38010;53.264;6.592;2023-03-20T15:49:55;15.00;99.90
51996;DHT22;38010;53.264;6.592;2023-03-20T15:52:45;15.00;99.90
51996;DHT22;38010;53.264;6.592;2023-03-20T15:55:19;15.00;99.90
51996;DHT22;38010;53.264;6.592;2023-03-20T15:57:46;15.00;99.90
51996;DHT22;38010;53.264;6.592;2023-03-20T16:00:38;15.00;99.90
51996;DHT22;38010;53.264;6.592;2023-03-20T16:03:10;15.00;99.90
51996;DHT22;38010;53.264;6.592;2023-03-20T16:05:42;15.00;99.90
51996;DHT22;38010;53.264;6.592;2023-03-20T16:08:23;15.00;99.90
51996;DHT22;38010;53.264;6.592;2023-03-20T16:11:04;15.00;99.90
51996;DHT22;38010;53.264;6.592;2023-03-20T16:13:42;15.00;99.90
51996;DHT22;38010;53.264;6.592;2023-03-20T16:16:16;14.90;99.90
51996;DHT22;38010;53.264;6.592;2023-03-20T16:18:43;14.90;99.90
51996;DHT22;38010;53.264;6.592;2023-03-20T16:23:48;15.00;99.90
51996;DHT22;38010;53.264;6.592;2023-03-20T16:26:17;14.90;99.90
51996;DHT22;38010;53.264;6.592;2023-03-20T16:28:49;15.00;99.90
51996;DHT22;38010;53.264;6.592;2023-03-20T16:31:19;14.90;99.90
51996;DHT22;38010;53.264;6.592;2023-03-20T16:33:47;15.00;99.90
51996;DHT22;38010;53.264;6.592;2023-03-20T16:36:25;14.90;99.90
51996;DHT22;38010;53.264;6.592;2023-03-20T16:38:54;14.90;99.90
51996;DHT22;38010;53.264;6.592;2023-03-20T16:43:54;15.00;99.90
51996;DHT22;38010;53.264;6.592;2023-03-20T16:46:23;15.00;99.90
51996;DHT22;38010;53.264;6.592;2023-03-20T16:51:47;14.90;99.90
51996;DHT22;38010;53.264;6.592;2023-03-20T16:54:19;14.90;99.90
51996;DHT22;38010;53.264;6.592;2023-03-20T16:56:51;15.00;99.90
51996;DHT22;38010;53.264;6.592;2023-03-20T16:59:18;14.90;99.90
51996;DHT22;38010;53.264;6.592;2023-03-20T17:01:46;15.00;99.90
51996;DHT22;38010;53.264;6.592;2023-03-20T17:04:34;15.00;99.90
51996;DHT22;38010;53.264;6.592;2023-03-20T17:07:06;15.00;99.90
51996;DHT22;38010;53.264;6.592;2023-03-20T17:09:32;14.90;99.90
51996;DHT22;38010;53.264;6.592;2023-03-20T17:12:12;14.90;99.90
51996;DHT22;38010;53.264;6.592;2023-03-20T17:14:39;14.90;99.90
51996;DHT22;38010;53.264;6.592;2023-03-20T17:17:12;14.90;99.90
51996;DHT22;38010;53.264;6.592;2023-03-20T17:19:38;14.90;99.90
51996;DHT22;38010;53.264;6.592;2023-03-20T17:22:15;14.90;99.90
51996;DHT22;38010;53.264;6.592;2023-03-20T17:24:41;14.80;99.90
51996;DHT22;38010;53.264;6.592;2023-03-20T17:27:16;14.90;99.90
51996;DHT22;38010;53.264;6.592;2023-03-20T17:29:43;14.90;99.90
51996;DHT22;38010;53.264;6.592;2023-03-20T17:32:14;14.90;99.90
51996;DHT22;38010;53.264;6.592;2023-03-20T17:34:40;14.80;99.90
51996;DHT22;38010;53.264;6.592;2023-03-20T17:37:14;14.80;99.90
51996;DHT22;38010;53.264;6.592;2023-03-20T17:39:41;14.90;99.90
51996;DHT22;38010;53.264;6.592;2023-03-20T17:42:18;15.00;99.90
51996;DHT22;38010;53.264;6.592;2023-03-20T17:44:45;15.00;99.90
51996;DHT22;38010;53.264;6.592;2023-03-20T17:47:15;15.20;99.90
51996;DHT22;38010;53.264;6.592;2023-03-20T17:49:42;15.20;99.90
51996;DHT22;38010;53.264;6.592;2023-03-20T17:52:16;15.20;99.90
51996;DHT22;38010;53.264;6.592;2023-03-20T17:54:43;15.30;99.90
51996;DHT22;38010;53.264;6.592;2023-03-20T17:57:32;15.30;99.90
51996;DHT22;38010;53.264;6.592;2023-03-20T17:59:59;15.40;99.90
51996;DHT22;38010;53.264;6.592;2023-03-20T18:02:25;15.40;99.90
51996;DHT22;38010;53.264;6.592;2023-03-20T18:04:51;15.50;99.90
51996;DHT22;38010;53.264;6.592;2023-03-20T18:07:18;15.70;99.90
51996;DHT22;38010;53.264;6.592;2023-03-20T18:09:44;15.80;99.90
51996;DHT22;38010;53.264;6.592;2023-03-20T18:12:16;15.80;99.90
51996;DHT22;38010;53.264;6.592;2023-03-20T18:14:43;15.80;99.90
51996;DHT22;38010;53.264;6.592;2023-03-20T18:17:13;15.80;99.90
51996;DHT22;38010;53.264;6.592;2023-03-20T18:19:40;15.90;99.90